Time;durP1;ratioP1;P1;durP2;ratioP2;P2;SDS_P1;SDS_P2;PMS_P1;PMS_P2;Temp;Humidity;BMP_temperature;BMP_pressure;BME280_temperature;BME280_humidity;BME280_pressure;Samples;Min_cycle;Max_cycle;Signal;HPM_P1;HPM_P2
2023/01/31 00:00:55;;;;;;;3.30;1.30;;;24.00;99.90;;;;;;5074619;28;20192;-76
2023/01/31 00:03:26;;;;;;;2.50;1.10;;;23.90;99.90;;;;;;5074456;28;20189;-76
2023/01/31 00:05:59;;;;;;;3.75;1.27;;;23.90;99.90;;;;;;5074401;28;20676;-76
2023/01/31 00:08:30;;;;;;;3.10;1.20;;;23.80;99.90;;;;;;5074516;28;20224;-77
2023/01/31 00:11:02;;;;;;;3.35;1.10;;;23.90;99.90;;;;;;5074212;28;20195;-76
2023/01/31 00:13:33;;;;;;;4.55;1.10;;;23.90;99.90;;;;;;5074245;28;20588;-77
2023/01/31 00:16:04;;;;;;;4.32;1.48;;;24.00;99.90;;;;;;5074111;28;20195;-76
2023/01/31 00:18:36;;;;;;;5.28;1.00;;;24.00;99.90;;;;;;5074008;28;20571;-77
2023/01/31 00:21:14;;;;;;;5.22;1.65;;;24.00;99.90;;;;;;5073868;28;20276;-76
2023/01/31 00:23:46;;;;;;;2.50;1.35;;;24.00;99.90;;;;;;5073213;28;20220;-77
2023/01/31 00:26:18;;;;;;;2.85;1.27;;;24.00;99.90;;;;;;5073657;28;20228;-76
2023/01/31 00:28:50;;;;;;;5.07;1.83;;;24.00;99.90;;;;;;5073806;28;20200;-76
2023/01/31 00:31:22;;;;;;;2.53;1.20;;;23.90;99.90;;;;;;5073907;28;20185;-76
2023/01/31 00:33:55;;;;;;;3.17;1.10;;;23.80;99.90;;;;;;5073634;28;20576;-78
2023/01/31 00:36:29;;;;;;;3.15;1.25;;;23.80;99.90;;;;;;5073557;28;20712;-76
2023/01/31 00:39:02;;;;;;;3.67;1.10;;;23.60;99.90;;;;;;5073760;28;20723;-76
2023/01/31 00:41:34;;;;;;;3.95;1.50;;;23.60;99.90;;;;;;5072330;28;20230;-76
2023/01/31 00:44:06;;;;;;;4.65;1.30;;;23.60;99.90;;;;;;5070417;28;20197;-76
2023/01/31 00:46:37;;;;;;;2.25;1.20;;;23.50;99.90;;;;;;5069288;28;20308;-76
2023/01/31 00:49:08;;;;;;;3.25;1.42;;;23.50;99.90;;;;;;5072683;28;20203;-77
2023/01/31 00:51:41;;;;;;;3.75;1.20;;;23.50;99.90;;;;;;5072088;28;20684;-76
2023/01/31 00:54:12;;;;;;;2.78;1.27;;;23.50;99.90;;;;;;5072827;28;20651;-76
2023/01/31 00:56:43;;;;;;;4.18;1.40;;;23.50;99.90;;;;;;5072411;28;20211;-76
2023/01/31 00:59:14;;;;;;;4.93;1.50;;;23.50;99.90;;;;;;5071098;28;20252;-76
2023/01/31 01:01:45;;;;;;;4.30;1.50;;;23.60;99.90;;;;;;5072558;28;20196;-76
2023/01/31 01:04:16;;;;;;;4.68;1.40;;;23.60;99.90;;;;;;5072242;28;21143;-76
2023/01/31 01:06:49;;;;;;;3.63;1.27;;;23.60;99.90;;;;;;5070978;28;20623;-76
2023/01/31 01:09:21;;;;;;;4.05;1.27;;;23.50;99.90;;;;;;5070902;28;20280;-77
2023/01/31 01:11:52;;;;;;;4.68;1.30;;;23.50;99.90;;;;;;5069429;28;20633;-76
2023/01/31 01:14:24;;;;;;;3.72;1.25;;;23.50;99.90;;;;;;5072033;28;20514;-76
2023/01/31 01:16:57;;;;;;;2.92;1.20;;;23.50;99.90;;;;;;5067088;28;20690;-76
2023/01/31 01:19:28;;;;;;;3.38;1.30;;;23.50;99.90;;;;;;5072257;28;20301;-76
2023/01/31 01:22:00;;;;;;;1.88;1.30;;;23.40;99.90;;;;;;5071541;28;20288;-77
2023/01/31 01:24:31;;;;;;;4.47;1.48;;;23.40;99.90;;;;;;5064644;28;20204;-76
2023/01/31 01:27:03;;;;;;;2.42;1.45;;;23.40;99.90;;;;;;5067806;28;20220;-77
2023/01/31 01:29:35;;;;;;;2.78;1.10;;;23.40;99.90;;;;;;5070853;28;20193;-76
2023/01/31 01:32:06;;;;;;;5.13;1.30;;;23.40;99.90;;;;;;5069774;28;20202;-76
2023/01/31 01:34:38;;;;;;;2.88;1.00;;;23.30;99.90;;;;;;5066847;28;20193;-78
2023/01/31 01:37:18;;;;;;;2.80;1.35;;;23.30;99.90;;;;;;5071731;28;20203;-76
2023/01/31 01:39:50;;;;;;;2.58;1.10;;;23.30;99.90;;;;;;5076014;28;20197;-76
2023/01/31 01:42:23;;;;;;;3.92;1.27;;;23.30;99.90;;;;;;5076714;28;20189;-76
2023/01/31 01:44:57;;;;;;;1.92;1.00;;;23.30;99.90;;;;;;5072645;28;20219;-76
2023/01/31 01:47:39;;;;;;;3.30;1.40;;;23.40;99.90;;;;;;5074928;28;20218;-77
2023/01/31 01:50:15;;;;;;;5.45;1.50;;;23.50;99.90;;;;;;5076507;28;20299;-76
2023/01/31 01:52:52;;;;;;;2.63;1.10;;;23.50;99.90;;;;;;5076837;28;20188;-76
2023/01/31 01:55:26;;;;;;;2.05;1.17;;;23.60;99.90;;;;;;5076975;28;20211;-76
2023/01/31 01:58:02;;;;;;;4.10;1.60;;;23.70;99.90;;;;;;5076442;28;20232;-76
2023/01/31 02:00:35;;;;;;;2.28;1.13;;;23.80;99.90;;;;;;5076844;28;20192;-76
2023/01/31 02:03:09;;;;;;;3.80;1.30;;;23.90;99.90;;;;;;5076805;28;20562;-76
2023/01/31 02:05:45;;;;;;;1.73;1.23;;;24.00;99.90;;;;;;5076693;28;20655;-76
2023/01/31 02:08:21;;;;;;;1.88;1.00;;;24.10;99.90;;;;;;5070399;28;20719;-77
2023/01/31 02:10:56;;;;;;;2.25;1.08;;;24.30;99.90;;;;;;5056768;28;20193;-76
2023/01/31 02:13:27;;;;;;;2.30;1.00;;;24.40;99.90;;;;;;5071309;28;20195;-76
2023/01/31 02:15:59;;;;;;;1.85;0.90;;;24.60;99.90;;;;;;5071824;28;20682;-76
2023/01/31 02:18:30;;;;;;;3.08;0.90;;;24.90;99.90;;;;;;5076097;28;20692;-76
2023/01/31 02:21:32;;;;;;;2.38;1.00;;;25.10;99.90;;;;;;5075302;28;20707;-76
2023/01/31 02:24:26;;;;;;;1.98;1.00;;;25.20;99.90;;;;;;5075487;28;20211;-76
2023/01/31 02:27:30;;;;;;;1.90;1.00;;;25.20;99.90;;;;;;5075841;28;20303;-76
2023/01/31 02:30:32;;;;;;;2.92;1.17;;;25.00;99.90;;;;;;5075014;28;20200;-75
2023/01/31 02:33:15;;;;;;;2.25;1.10;;;24.90;99.90;;;;;;5046010;28;20734;-76
2023/01/31 02:35:57;;;;;;;2.70;1.00;;;24.80;99.90;;;;;;5073445;28;20280;-76
2023/01/31 02:38:41;;;;;;;1.55;1.00;;;24.80;99.90;;;;;;5075915;28;20556;-76
2023/01/31 02:41:20;;;;;;;4.25;1.30;;;24.80;99.90;;;;;;5075063;28;20280;-76
2023/01/31 02:46:54;;;;;;;2.45;1.13;;;25.00;99.90;;;;;;5075023;28;20236;-76
2023/01/31 02:49:35;;;;;;;2.92;1.08;;;25.10;99.90;;;;;;5073254;28;20229;-76
2023/01/31 02:52:18;;;;;;;7.20;1.63;;;25.20;99.90;;;;;;5061605;28;20586;-75
2023/01/31 02:57:48;;;;;;;4.50;1.70;;;25.50;99.90;;;;;;5073903;28;20193;-76
2023/01/31 03:00:20;;;;;;;1.83;1.00;;;25.70;99.90;;;;;;5086555;28;20185;-76
2023/01/31 03:02:51;;;;;;;4.40;1.55;;;25.90;99.90;;;;;;5055904;28;20196;-76
2023/01/31 03:05:24;;;;;;;2.88;1.25;;;26.00;99.90;;;;;;5061754;28;20185;-76
2023/01/31 03:07:59;;;;;;;3.08;1.08;;;26.10;99.90;;;;;;5086690;28;20216;-76
2023/01/31 03:10:42;;;;;;;2.85;1.10;;;26.10;99.90;;;;;;5095797;28;20198;-77
2023/01/31 03:13:36;;;;;;;2.15;1.00;;;26.20;99.90;;;;;;5093111;28;20207;-76
2023/01/31 03:19:12;;;;;;;3.25;0.80;;;26.30;99.90;;;;;;5073412;28;20215;-77
2023/01/31 03:21:49;;;;;;;1.38;0.98;;;26.40;99.90;;;;;;5070040;28;20200;-77
2023/01/31 03:24:24;;;;;;;1.25;0.80;;;26.50;99.90;;;;;;5074909;28;20192;-76
2023/01/31 03:26:57;;;;;;;1.98;0.80;;;26.50;99.90;;;;;;5075072;28;20638;-75
2023/01/31 03:29:30;;;;;;;2.55;0.93;;;26.60;99.90;;;;;;5074990;28;20193;-76
2023/01/31 03:32:05;;;;;;;0.95;0.70;;;26.70;99.90;;;;;;5074782;28;20629;-76
2023/01/31 03:34:36;;;;;;;3.75;1.13;;;26.80;99.90;;;;;;5076148;28;20188;-75
2023/01/31 03:37:14;;;;;;;2.50;1.00;;;26.80;99.90;;;;;;5072859;28;20271;-75
2023/01/31 03:39:52;;;;;;;2.05;1.05;;;26.90;99.90;;;;;;5087661;28;20267;-76
2023/01/31 03:42:28;;;;;;;1.90;1.00;;;26.80;99.90;;;;;;5077017;28;20288;-76
2023/01/31 03:45:06;;;;;;;1.58;0.60;;;26.70;99.90;;;;;;5074740;28;20629;-76
2023/01/31 03:47:40;;;;;;;1.33;0.70;;;26.70;99.90;;;;;;5068604;28;20208;-75
2023/01/31 03:50:15;;;;;;;1.08;0.50;;;26.70;99.90;;;;;;5074660;28;20647;-76
2023/01/31 03:52:52;;;;;;;1.70;1.20;;;26.80;99.90;;;;;;5075364;28;20626;-75
2023/01/31 03:55:29;;;;;;;1.75;0.80;;;26.90;99.90;;;;;;5074755;28;20291;-75
2023/01/31 03:58:04;;;;;;;2.25;0.90;;;26.90;99.90;;;;;;5074090;28;20229;-77
2023/01/31 04:00:37;;;;;;;3.90;1.00;;;26.80;99.90;;;;;;5074388;28;20283;-77
2023/01/31 04:03:12;;;;;;;5.90;1.45;;;26.70;99.90;;;;;;5074361;28;20189;-76
2023/01/31 04:05:44;;;;;;;3.28;1.20;;;26.60;99.90;;;;;;5054316;28;20204;-75
2023/01/31 04:08:17;;;;;;;4.72;1.20;;;26.50;99.90;;;;;;5055669;28;20244;-76
2023/01/31 04:10:48;;;;;;;2.25;1.40;;;26.40;99.90;;;;;;5053011;28;20273;-76
2023/01/31 04:13:20;;;;;;;5.47;1.60;;;26.20;99.90;;;;;;5063096;28;20188;-75
2023/01/31 04:15:51;;;;;;;5.57;1.45;;;26.10;99.90;;;;;;5065753;28;20189;-76
2023/01/31 04:18:22;;;;;;;4.97;1.70;;;26.00;99.90;;;;;;5059998;28;20204;-76
2023/01/31 04:20:53;;;;;;;4.00;1.33;;;26.10;99.90;;;;;;5069340;28;20208;-77
2023/01/31 04:23:27;;;;;;;6.28;2.10;;;26.10;99.90;;;;;;5073847;28;20203;-77
2023/01/31 04:25:57;;;;;;;6.13;1.90;;;26.10;99.90;;;;;;5073889;28;20555;-75
2023/01/31 04:28:28;;;;;;;4.38;1.58;;;26.10;99.90;;;;;;5072829;28;20224;-76
2023/01/31 04:30:59;;;;;;;4.45;1.60;;;26.10;99.90;;;;;;5070319;28;20201;-77
2023/01/31 04:33:30;;;;;;;3.42;1.38;;;26.10;99.90;;;;;;5066860;28;20211;-77
2023/01/31 04:36:01;;;;;;;5.72;1.40;;;26.20;99.90;;;;;;5070947;28;20197;-76
2023/01/31 04:38:34;;;;;;;6.20;1.73;;;26.30;99.90;;;;;;5066535;28;20204;-76
2023/01/31 04:41:05;;;;;;;4.38;1.67;;;26.50;99.90;;;;;;5070309;28;20200;-76
2023/01/31 04:43:36;;;;;;;4.38;1.20;;;26.60;99.90;;;;;;5069788;28;20199;-76
2023/01/31 04:46:07;;;;;;;4.90;1.40;;;26.70;99.90;;;;;;5070285;28;20193;-77
2023/01/31 04:48:42;;;;;;;3.80;1.60;;;26.90;99.90;;;;;;5069870;28;20318;-78
2023/01/31 04:51:13;;;;;;;5.00;1.40;;;27.10;99.90;;;;;;5071281;28;20205;-76
2023/01/31 04:53:46;;;;;;;5.68;1.80;;;27.10;99.90;;;;;;5069199;28;20847;-76
2023/01/31 04:56:17;;;;;;;4.78;1.42;;;27.10;99.90;;;;;;5070868;28;20204;-75
2023/01/31 04:58:49;;;;;;;5.15;1.73;;;26.90;99.90;;;;;;5072952;28;20224;-77
2023/01/31 05:01:19;;;;;;;4.03;1.50;;;26.80;99.90;;;;;;5072790;28;20193;-78
2023/01/31 05:03:50;;;;;;;5.55;1.60;;;26.60;99.90;;;;;;5073312;28;20185;-77
2023/01/31 05:06:21;;;;;;;4.50;1.85;;;26.50;99.90;;;;;;5073551;28;20200;-77
2023/01/31 05:08:55;;;;;;;6.40;1.42;;;26.40;99.90;;;;;;5072000;28;20216;-76
2023/01/31 05:11:26;;;;;;;6.15;1.50;;;26.20;99.90;;;;;;5054243;28;20197;-76
2023/01/31 05:13:57;;;;;;;4.53;1.30;;;26.10;99.90;;;;;;5058119;28;20200;-76
2023/01/31 05:16:28;;;;;;;5.18;1.48;;;26.00;99.90;;;;;;5066435;28;20607;-75
2023/01/31 05:18:59;;;;;;;4.80;1.80;;;26.00;99.90;;;;;;5069633;28;20230;-75
2023/01/31 05:21:53;;;;;;;8.18;1.45;;;26.00;99.90;;;;;;5053155;28;20201;-76
2023/01/31 05:24:22;;;;;;;4.85;1.60;;;26.00;99.90;;;;;;5052922;28;20208;-74
2023/01/31 05:26:57;;;;;;;7.15;1.67;;;26.10;99.90;;;;;;5052922;28;20192;-77
2023/01/31 05:29:28;;;;;;;5.30;1.58;;;26.10;99.90;;;;;;5058927;28;20568;-76
2023/01/31 05:32:01;;;;;;;5.57;1.80;;;26.00;99.90;;;;;;5072994;28;20662;-76
2023/01/31 05:34:32;;;;;;;5.03;1.20;;;25.90;99.90;;;;;;5072815;28;20205;-75
2023/01/31 05:37:03;;;;;;;2.65;1.08;;;25.90;99.90;;;;;;5072018;28;20181;-76
2023/01/31 05:39:36;;;;;;;7.38;1.50;;;25.80;99.90;;;;;;5072912;28;20279;-74
2023/01/31 05:42:07;;;;;;;4.57;1.25;;;25.70;99.90;;;;;;5073063;28;20260;-76
2023/01/31 05:44:38;;;;;;;3.75;1.30;;;25.70;99.90;;;;;;5073001;28;20559;-75
2023/01/31 05:47:09;;;;;;;4.53;1.38;;;25.60;99.90;;;;;;5072633;28;20196;-75
2023/01/31 05:49:40;;;;;;;5.00;1.27;;;25.60;99.90;;;;;;5068065;28;20688;-75
2023/01/31 05:52:11;;;;;;;4.93;1.70;;;25.60;99.90;;;;;;5052932;28;20285;-76
2023/01/31 05:54:44;;;;;;;10.07;5.60;;;25.80;99.90;;;;;;5061641;28;20188;-74
2023/01/31 05:57:15;;;;;;;7.68;3.42;;;25.90;99.90;;;;;;5072587;28;20211;-76
2023/01/31 05:59:46;;;;;;;6.07;1.80;;;26.00;99.90;;;;;;5072548;28;20232;-76
2023/01/31 06:02:17;;;;;;;5.68;1.50;;;26.10;99.90;;;;;;5072827;28;20189;-76
2023/01/31 06:04:48;;;;;;;4.03;1.30;;;26.20;99.90;;;;;;5072705;28;20272;-76
2023/01/31 06:07:19;;;;;;;4.88;1.30;;;26.20;99.90;;;;;;5064799;28;20217;-76
2023/01/31 06:09:52;;;;;;;5.57;1.20;;;26.10;99.90;;;;;;5071280;28;20201;-77
2023/01/31 06:12:23;;;;;;;2.33;0.90;;;26.10;99.90;;;;;;5072742;28;20201;-75
2023/01/31 06:14:54;;;;;;;5.10;1.20;;;26.00;99.90;;;;;;5071365;28;20207;-75
2023/01/31 06:17:25;;;;;;;6.28;1.40;;;26.00;99.90;;;;;;5072274;28;20217;-76
2023/01/31 06:19:56;;;;;;;3.85;1.17;;;25.90;99.90;;;;;;5072942;28;20185;-75
2023/01/31 06:22:27;;;;;;;4.35;1.30;;;26.00;99.90;;;;;;5074132;28;20193;-74
2023/01/31 06:24:59;;;;;;;8.57;1.40;;;26.10;99.90;;;;;;5076525;28;20212;-75
2023/01/31 06:27:33;;;;;;;7.78;1.35;;;26.00;99.90;;;;;;5076083;28;20219;-72
2023/01/31 06:30:04;;;;;;;6.93;1.48;;;26.00;99.90;;;;;;5076206;28;20242;-76
2023/01/31 06:32:35;;;;;;;6.45;1.30;;;25.90;99.90;;;;;;5073139;28;20208;-76
2023/01/31 06:35:07;;;;;;;6.68;1.40;;;25.90;99.90;;;;;;5071131;28;20201;-74
2023/01/31 06:37:38;;;;;;;6.05;1.30;;;25.90;99.90;;;;;;5071796;28;20280;-79
2023/01/31 06:40:11;;;;;;;5.72;1.30;;;25.90;99.90;;;;;;5073715;28;20209;-75
2023/01/31 06:42:43;;;;;;;4.75;1.70;;;25.90;99.90;;;;;;5073886;28;20196;-76
2023/01/31 06:45:14;;;;;;;5.55;1.55;;;25.80;99.90;;;;;;5074237;28;20283;-75
2023/01/31 06:47:47;;;;;;;5.75;1.55;;;25.80;99.90;;;;;;5072052;28;20311;-74
2023/01/31 06:50:19;;;;;;;6.35;1.58;;;25.80;99.90;;;;;;5073121;28;20288;-76
2023/01/31 06:52:50;;;;;;;7.78;1.73;;;25.80;99.90;;;;;;5073273;28;20644;-74
2023/01/31 06:55:23;;;;;;;4.97;1.70;;;25.70;99.90;;;;;;5069116;28;20551;-75
2023/01/31 06:57:54;;;;;;;7.18;1.77;;;25.60;99.90;;;;;;5067968;28;20319;-76
2023/01/31 07:00:25;;;;;;;8.88;1.70;;;25.60;99.90;;;;;;5073306;28;20204;-76
2023/01/31 07:02:56;;;;;;;5.97;1.65;;;25.60;99.90;;;;;;5073266;28;20200;-76
2023/01/31 07:05:27;;;;;;;6.13;1.90;;;25.70;99.90;;;;;;5075670;28;20185;-75
2023/01/31 07:07:58;;;;;;;5.18;1.40;;;25.70;99.90;;;;;;5073857;28;20217;-75
2023/01/31 07:10:31;;;;;;;4.95;1.35;;;25.70;99.90;;;;;;5073665;28;20225;-75
2023/01/31 07:13:02;;;;;;;7.78;1.60;;;25.70;99.90;;;;;;5066255;28;20197;-77
2023/01/31 07:15:36;;;;;;;6.63;1.33;;;25.70;99.90;;;;;;5075338;28;20200;-77
2023/01/31 07:18:07;;;;;;;3.83;1.20;;;25.60;99.90;;;;;;5074867;28;20656;-75
2023/01/31 07:20:38;;;;;;;5.95;1.33;;;25.50;99.90;;;;;;5071722;28;20195;-76
2023/01/31 07:23:10;;;;;;;5.63;1.10;;;25.40;99.90;;;;;;5071635;28;20201;-76
2023/01/31 07:25:43;;;;;;;5.78;1.85;;;25.40;99.90;;;;;;5075015;28;20204;-77
2023/01/31 07:28:14;;;;;;;6.75;1.60;;;25.50;99.90;;;;;;5062637;28;20227;-75
2023/01/31 07:30:46;;;;;;;6.05;1.33;;;25.30;99.90;;;;;;5073105;28;20648;-75
2023/01/31 07:33:17;;;;;;;3.85;1.27;;;25.20;99.90;;;;;;5073035;28;20228;-74
2023/01/31 07:35:48;;;;;;;5.60;1.30;;;25.20;99.90;;;;;;5073391;28;20279;-75
2023/01/31 07:38:19;;;;;;;4.07;1.10;;;25.10;99.90;;;;;;5069427;28;20719;-76
2023/01/31 07:40:52;;;;;;;6.22;1.40;;;25.10;99.90;;;;;;5066732;28;20199;-79
2023/01/31 07:43:23;;;;;;;5.78;1.20;;;25.00;99.90;;;;;;5073037;28;20207;-76
2023/01/31 07:45:54;;;;;;;4.32;1.00;;;25.00;99.90;;;;;;5074977;28;20209;-75
2023/01/31 07:48:25;;;;;;;5.22;1.17;;;25.00;99.90;;;;;;5072454;28;20610;-76
2023/01/31 07:51:00;;;;;;;6.68;1.52;;;25.00;99.90;;;;;;5060637;28;20208;-76
2023/01/31 07:53:33;;;;;;;5.63;1.30;;;24.90;99.90;;;;;;5061574;28;20224;-77
2023/01/31 07:56:14;;;;;;;7.05;1.15;;;24.90;99.90;;;;;;5067846;28;20212;-76
2023/01/31 07:58:46;;;;;;;5.15;1.33;;;24.80;99.90;;;;;;5062675;28;20240;-77
2023/01/31 08:04:04;;;;;;;8.40;1.42;;;24.70;99.90;;;;;;5066053;28;20200;-76
2023/01/31 08:06:35;;;;;;;4.68;1.10;;;24.60;99.90;;;;;;5072496;28;20739;-76
2023/01/31 08:09:06;;;;;;;7.00;1.08;;;24.70;99.90;;;;;;5073112;28;20653;-75
2023/01/31 08:11:39;;;;;;;6.35;1.10;;;24.60;99.90;;;;;;5072239;28;20275;-76
2023/01/31 08:14:10;;;;;;;4.68;1.20;;;24.50;99.90;;;;;;5071818;28;20227;-75
2023/01/31 08:16:41;;;;;;;5.40;1.38;;;24.40;99.90;;;;;;5068262;28;20196;-75
2023/01/31 08:19:12;;;;;;;5.63;1.00;;;24.30;99.90;;;;;;5073651;28;20211;-77
2023/01/31 08:21:43;;;;;;;5.00;1.10;;;24.20;99.90;;;;;;5064595;28;20193;-74
2023/01/31 08:24:14;;;;;;;4.97;1.10;;;24.30;99.90;;;;;;5071930;28;20203;-75
2023/01/31 08:26:47;;;;;;;5.38;1.15;;;24.20;99.90;;;;;;5072232;28;20280;-75
2023/01/31 08:29:18;;;;;;;4.38;1.10;;;24.20;99.90;;;;;;5072614;28;20223;-76
2023/01/31 08:31:49;;;;;;;4.07;1.00;;;24.10;99.90;;;;;;5072901;28;20201;-77
2023/01/31 08:34:22;;;;;;;2.00;0.73;;;24.00;99.90;;;;;;5065581;28;20284;-78
2023/01/31 08:36:53;;;;;;;5.82;1.13;;;24.00;99.90;;;;;;5077817;28;20231;-82
2023/01/31 08:39:24;;;;;;;8.27;1.33;;;23.90;99.90;;;;;;5071559;28;20209;-75
2023/01/31 08:41:56;;;;;;;3.53;1.00;;;23.80;99.90;;;;;;5069941;28;20283;-78
2023/01/31 08:44:27;;;;;;;3.03;1.10;;;23.80;99.90;;;;;;5071773;28;20201;-77
2023/01/31 08:47:00;;;;;;;3.30;0.98;;;23.80;99.90;;;;;;5070863;28;20280;-76
2023/01/31 08:49:32;;;;;;;4.95;1.23;;;23.70;99.90;;;;;;5062958;28;20239;-77
2023/01/31 08:52:03;;;;;;;4.15;1.20;;;23.70;99.90;;;;;;5071990;28;20224;-76
2023/01/31 08:54:34;;;;;;;5.40;1.40;;;23.70;99.90;;;;;;5068861;28;20207;-77
2023/01/31 08:57:07;;;;;;;5.97;1.50;;;23.60;99.90;;;;;;5070910;28;20201;-76
2023/01/31 08:59:38;;;;;;;5.78;1.17;;;23.50;99.90;;;;;;5069734;28;20238;-79
2023/01/31 09:02:12;;;;;;;3.85;1.05;;;23.40;99.90;;;;;;5072402;28;20690;-77
2023/01/31 09:04:43;;;;;;;5.88;1.35;;;23.40;99.90;;;;;;5070591;28;20192;-76
2023/01/31 09:07:14;;;;;;;5.60;1.20;;;23.30;99.90;;;;;;5071989;28;20597;-76
2023/01/31 09:09:45;;;;;;;4.97;1.00;;;23.30;99.90;;;;;;5071247;28;20213;-77
2023/01/31 09:12:18;;;;;;;4.68;1.23;;;23.30;99.90;;;;;;5073187;28;20255;-76
2023/01/31 09:14:49;;;;;;;6.25;1.00;;;23.20;99.90;;;;;;5071161;28;20193;-76
2023/01/31 09:17:20;;;;;;;5.32;1.10;;;23.20;99.90;;;;;;5071315;28;20291;-76
2023/01/31 09:19:51;;;;;;;2.58;0.80;;;23.20;99.90;;;;;;5071176;28;20215;-76
2023/01/31 09:22:22;;;;;;;5.95;1.02;;;23.10;99.90;;;;;;5069915;28;20644;-76
2023/01/31 09:24:53;;;;;;;5.43;1.30;;;23.10;99.90;;;;;;5061407;28;20279;-76
2023/01/31 09:27:25;;;;;;;4.13;0.90;;;23.10;99.90;;;;;;5071454;28;20694;-76
2023/01/31 09:29:56;;;;;;;5.50;1.05;;;23.10;99.90;;;;;;5069242;28;20653;-76
2023/01/31 09:32:28;;;;;;;4.95;0.80;;;23.10;99.90;;;;;;5070820;28;20203;-76
2023/01/31 09:34:59;;;;;;;6.05;0.95;;;23.00;99.90;;;;;;5070541;28;20200;-76
2023/01/31 09:37:32;;;;;;;4.88;1.00;;;23.00;99.90;;;;;;5071920;28;20197;-76
2023/01/31 09:40:04;;;;;;;4.38;0.93;;;22.90;99.90;;;;;;5067119;28;20220;-76
2023/01/31 09:42:40;;;;;;;3.97;0.90;;;22.90;99.90;;;;;;5070669;28;20309;-76
2023/01/31 09:45:16;;;;;;;4.32;0.85;;;22.90;99.90;;;;;;5070127;28;20192;-77
2023/01/31 09:47:50;;;;;;;2.70;0.73;;;22.80;99.90;;;;;;5071498;28;20220;-76
2023/01/31 09:50:24;;;;;;;5.70;0.80;;;22.80;99.90;;;;;;5071296;28;20214;-76
2023/01/31 09:52:55;;;;;;;2.80;0.90;;;22.80;99.90;;;;;;5067230;28;20292;-76
2023/01/31 09:55:31;;;;;;;3.55;0.80;;;22.80;99.90;;;;;;5070855;28;20664;-77
2023/01/31 09:58:09;;;;;;;8.32;1.00;;;22.80;99.90;;;;;;5069582;28;20232;-76
2023/01/31 10:00:47;;;;;;;2.85;0.80;;;22.90;99.90;;;;;;5076819;28;20207;-76
2023/01/31 10:03:45;;;;;;;5.47;0.90;;;22.80;99.90;;;;;;5074984;28;20193;-76
2023/01/31 10:06:23;;;;;;;4.82;0.73;;;22.80;99.90;;;;;;5075940;28;20197;-76
2023/01/31 10:09:01;;;;;;;3.38;0.88;;;22.80;99.90;;;;;;5074250;28;20323;-76
2023/01/31 10:11:36;;;;;;;4.70;0.95;;;22.80;99.90;;;;;;5064598;28;20193;-76
2023/01/31 10:14:23;;;;;;;7.03;1.08;;;22.80;99.90;;;;;;5075150;28;20295;-76
2023/01/31 10:17:12;;;;;;;1.90;0.90;;;22.80;99.90;;;;;;5073827;28;20205;-76
2023/01/31 10:19:48;;;;;;;4.88;0.93;;;22.90;99.90;;;;;;5066825;28;20200;-75
2023/01/31 10:22:23;;;;;;;7.60;0.98;;;22.90;99.90;;;;;;5075898;28;20200;-76
2023/01/31 10:24:59;;;;;;;5.22;1.10;;;22.90;99.90;;;;;;5074284;28;20662;-75
2023/01/31 10:27:42;;;;;;;5.75;0.93;;;22.90;99.90;;;;;;5054861;28;20664;-76
2023/01/31 10:30:20;;;;;;;4.63;1.08;;;22.90;99.90;;;;;;5059297;28;20237;-74
2023/01/31 10:32:54;;;;;;;5.28;1.02;;;22.90;99.90;;;;;;5054047;28;20684;-76
2023/01/31 10:35:31;;;;;;;4.00;0.93;;;22.90;99.90;;;;;;5065540;28;20195;-76
2023/01/31 10:38:08;;;;;;;8.98;0.95;;;22.90;99.90;;;;;;5073772;28;20193;-77
2023/01/31 10:40:41;;;;;;;4.55;0.85;;;22.90;99.90;;;;;;5072876;28;20196;-77
2023/01/31 10:43:18;;;;;;;3.20;0.88;;;22.90;99.90;;;;;;5073440;28;20561;-76
2023/01/31 10:45:51;;;;;;;8.18;1.10;;;22.90;99.90;;;;;;5073274;28;20197;-77
2023/01/31 10:48:25;;;;;;;3.63;0.93;;;22.90;99.90;;;;;;5074069;28;20217;-77
2023/01/31 10:51:08;;;;;;;3.50;0.82;;;22.90;99.90;;;;;;5068223;28;20863;-76
2023/01/31 10:53:53;;;;;;;2.25;0.70;;;22.90;99.90;;;;;;5067815;28;20205;-76
2023/01/31 10:56:33;;;;;;;3.63;0.70;;;22.90;99.90;;;;;;5064725;28;20201;-76
2023/01/31 10:59:07;;;;;;;4.15;1.20;;;22.90;99.90;;;;;;5072161;28;20224;-76
2023/01/31 11:01:41;;;;;;;3.47;0.85;;;22.90;99.90;;;;;;5072534;28;20197;-75
2023/01/31 11:04:30;;;;;;;3.83;0.90;;;22.90;99.90;;;;;;5067891;28;20198;-76
2023/01/31 11:07:02;;;;;;;3.70;0.90;;;22.90;99.90;;;;;;5064878;28;20575;-76
2023/01/31 11:09:36;;;;;;;5.82;1.20;;;22.90;99.90;;;;;;5071827;28;20213;-76
2023/01/31 11:12:09;;;;;;;5.32;0.93;;;22.90;99.90;;;;;;5073034;28;20227;-76
2023/01/31 11:14:40;;;;;;;4.75;0.90;;;22.90;99.90;;;;;;5072895;28;20193;-76
2023/01/31 11:17:18;;;;;;;5.57;0.95;;;22.80;99.90;;;;;;5072977;28;20284;-76
2023/01/31 11:19:52;;;;;;;3.85;1.25;;;22.80;99.90;;;;;;5073359;28;20189;-76
2023/01/31 11:22:28;;;;;;;6.13;0.93;;;22.80;99.90;;;;;;5074744;28;20612;-78
2023/01/31 11:25:02;;;;;;;3.95;0.80;;;22.70;99.90;;;;;;5074377;28;20197;-76
2023/01/31 11:27:39;;;;;;;4.90;1.10;;;22.70;99.90;;;;;;5072750;28;20192;-77
2023/01/31 11:30:25;;;;;;;4.22;0.90;;;22.70;99.90;;;;;;5072118;28;20216;-77
2023/01/31 11:32:58;;;;;;;6.72;0.90;;;22.70;99.90;;;;;;5071301;28;20200;-76
2023/01/31 11:35:31;;;;;;;3.88;0.73;;;22.70;99.90;;;;;;5074648;28;20193;-76
2023/01/31 11:38:04;;;;;;;4.78;1.00;;;22.70;99.90;;;;;;5072504;28;20276;-76
2023/01/31 11:40:37;;;;;;;5.00;0.77;;;22.70;99.90;;;;;;5076304;28;20203;-76
2023/01/31 11:43:09;;;;;;;5.30;0.90;;;22.70;99.90;;;;;;5074242;28;20204;-76
2023/01/31 11:45:40;;;;;;;4.60;0.90;;;22.70;99.90;;;;;;5072305;28;20666;-76
2023/01/31 11:48:20;;;;;;;7.13;1.08;;;22.60;99.90;;;;;;5073292;28;20228;-77
2023/01/31 11:50:56;;;;;;;4.88;0.95;;;22.70;99.90;;;;;;5071283;28;20226;-76
2023/01/31 11:53:29;;;;;;;4.07;0.93;;;22.60;99.90;;;;;;5072583;28;20698;-76
2023/01/31 11:56:12;;;;;;;5.60;0.90;;;22.60;99.90;;;;;;5073976;28;20216;-76
2023/01/31 11:58:45;;;;;;;3.55;0.88;;;22.60;99.90;;;;;;5065196;28;20283;-76
2023/01/31 12:01:19;;;;;;;3.58;0.82;;;22.60;99.90;;;;;;5071255;28;20640;-76
2023/01/31 12:03:57;;;;;;;3.63;0.98;;;22.60;99.90;;;;;;5064112;28;20238;-76
2023/01/31 12:06:33;;;;;;;2.53;0.73;;;22.60;99.90;;;;;;5070056;28;20211;-76
2023/01/31 12:09:05;;;;;;;3.63;0.90;;;22.60;99.90;;;;;;5070872;28;20201;-76
2023/01/31 12:11:37;;;;;;;3.30;1.00;;;22.60;99.90;;;;;;5053862;28;20200;-75
2023/01/31 12:14:16;;;;;;;3.25;1.00;;;22.50;99.90;;;;;;5054108;28;20197;-75
2023/01/31 12:16:49;;;;;;;3.35;1.00;;;22.50;99.90;;;;;;5072464;28;20197;-76
2023/01/31 12:19:34;;;;;;;6.55;1.13;;;22.50;99.90;;;;;;5073627;28;20197;-75
2023/01/31 12:22:12;;;;;;;6.47;1.30;;;22.50;99.90;;;;;;5073787;28;20203;-75
2023/01/31 12:24:51;;;;;;;4.57;0.98;;;22.40;99.90;;;;;;5073448;28;20199;-76
2023/01/31 12:27:40;;;;;;;4.45;1.15;;;22.40;99.90;;;;;;5071977;28;20197;-76
2023/01/31 12:30:33;;;;;;;3.67;0.90;;;22.40;99.90;;;;;;5070847;28;20225;-75
2023/01/31 12:33:18;;;;;;;3.42;0.93;;;22.40;99.90;;;;;;5063826;28;20569;-75
2023/01/31 12:36:04;;;;;;;3.90;0.90;;;22.30;99.90;;;;;;5073113;28;20185;-75
2023/01/31 12:39:03;;;;;;;4.50;0.90;;;22.30;99.90;;;;;;5072947;28;20275;-76
2023/01/31 12:41:38;;;;;;;4.20;1.10;;;22.30;99.90;;;;;;5069102;28;20205;-76
2023/01/31 12:44:36;;;;;;;2.90;0.98;;;22.30;99.90;;;;;;5073506;28;20202;-76
2023/01/31 12:47:31;;;;;;;4.68;1.05;;;22.20;99.90;;;;;;5072927;28;20235;-76
2023/01/31 12:50:22;;;;;;;4.97;1.08;;;22.10;99.90;;;;;;5044796;28;20225;-76
2023/01/31 12:53:17;;;;;;;4.32;1.00;;;22.10;99.90;;;;;;5062609;28;20206;-76
2023/01/31 12:56:00;;;;;;;4.47;0.88;;;22.00;99.90;;;;;;5069761;28;20537;-76
2023/01/31 12:58:45;;;;;;;1.83;0.70;;;22.00;99.90;;;;;;5069420;28;20239;-76
2023/01/31 13:01:19;;;;;;;4.72;0.93;;;22.00;99.90;;;;;;5068611;28;20201;-76
2023/01/31 13:04:06;;;;;;;3.05;0.73;;;21.90;99.90;;;;;;5064964;28;20272;-75
2023/01/31 13:06:40;;;;;;;3.38;0.90;;;21.90;99.90;;;;;;5072315;28;20226;-76
2023/01/31 13:09:19;;;;;;;3.25;0.90;;;21.90;99.90;;;;;;5072807;28;20644;-76
2023/01/31 13:11:54;;;;;;;2.00;0.90;;;21.90;99.90;;;;;;5073441;28;20284;-76
2023/01/31 13:14:27;;;;;;;3.95;0.82;;;21.90;99.90;;;;;;5071406;28;20283;-76
2023/01/31 13:17:01;;;;;;;2.97;0.70;;;21.90;99.90;;;;;;5058632;28;20185;-76
2023/01/31 13:19:38;;;;;;;3.40;0.70;;;21.80;99.90;;;;;;5072953;28;20196;-76
2023/01/31 13:22:16;;;;;;;4.22;0.88;;;21.80;99.90;;;;;;5072934;28;20632;-76
2023/01/31 13:24:53;;;;;;;2.60;0.80;;;21.80;99.90;;;;;;5072908;28;20185;-76
2023/01/31 13:27:29;;;;;;;2.72;0.70;;;21.70;99.90;;;;;;5072493;28;20647;-76
2023/01/31 13:30:03;;;;;;;1.88;0.70;;;21.70;99.90;;;;;;5072588;28;20227;-76
2023/01/31 13:32:41;;;;;;;4.72;0.70;;;21.70;99.90;;;;;;5070760;28;20192;-76
2023/01/31 13:35:23;;;;;;;2.00;0.75;;;21.70;99.90;;;;;;5070147;28;20240;-76
2023/01/31 13:37:58;;;;;;;2.30;0.65;;;21.60;99.90;;;;;;5067699;28;20219;-76